Tiempo atmosférico en la estación meteorológica de Chipiona, Cádiz (10 m.)



Fecha
DESCASC
Temp. máxima en grados centígrados (hora)
DESCASC
Temp. mínima en grados centígrados (hora)
DESCASC
Temp. media en grados centígrados
DESCASC
Racha de viento máxima en m/sg (hora)
DESCASC
Velocidad máxima media en intervalos de 10 minutos(hora)
DESCASC
Precipitaciones diarias en mm
DESCASC
Precipitaciones de 00:00 a 06:00 en mm
DESCASC
Precipitaciones de 06:00 a 12:00 en mm
DESCASC
Precipitaciones de 12:00 a 18:00 en mm
DESCASC
Precipitaciones de 18:00 a 24:00 en mm
DESCASC
12-01-2021 12.3 (16:00) 2.6 (00:00) 7.5 6.11 (08:30) 3.61 (10:00) 0 0 0 0 0
26-01-2021 17.3 (15:00) 13.6 (00:00) 15.4 6.67 (04:30) 4.17 (04:10) 0.2 0 0 0 0.2
23-01-2021 17.3 (13:20) 12.6 (00:00) 14.9 11.11 (18:00) 6.67 (13:30) 0.8 0 0 0 0.8
20-01-2021 16 (17:30) 13.4 (00:00) 14.7 13.61 (11:30) 6.94 (11:20) 31.8 0 10.8 20 1
19-01-2021 15 (15:00) 7.2 (00:00) 11.1 7.22 (23:50) 4.44 (15:20) 0 0 0 0 0
18-01-2021 17 (16:20) 3 (00:00) 10 3.61 (17:10) 1.67 (16:20) 0 0 0 0 0
17-01-2021 14.7 (17:40) 3.1 (00:00) 8.9 5.56 (14:40) 2.78 (14:40) 0 0 0 0 0
16-01-2021 15.5 (16:30) 2.3 (00:00) 8.9 7.22 (16:30) 3.61 (16:30) 0 0 0 0 0
15-01-2021 12.5 (14:50) 1.4 (00:00) 6.9 4.44 (16:20) 3.06 (16:10) 0 0 0 0 0
14-01-2021 10.5 (17:30) 0.9 (06:10) 5.7 5.28 (13:30) 3.33 (14:40) 0 0 0 0 0
13-01-2021 12.7 (16:10) 2.4 (00:00) 7.5 7.78 (12:30) 3.89 (12:50) 0 0 0 0 0
28-12-2020 15.9 (11:30) 12 (00:00) 13.9 15 (11:50) 9.17 (11:40) 0.6 0 0.2 0.4 0
11-01-2021 11.9 (16:40) 3.6 (00:00) 7.7 6.39 (10:50) 3.89 (10:50) 0 0 0 0 0
02-01-2021 12.2 (16:30) 5.9 (00:00) 9 8.61 (05:50) 5 (03:20) 0 0 0 0 0
29-12-2020 15.5 (15:20) 11.1 (00:00) 13.3 8.33 (20:30) 5.56 (14:40) 0 0 0 0 0
30-12-2020 12.8 (15:40) 3.6 (00:00) 8.2 9.17 (01:40) 5.28 (00:50) 0 0 0 0 0
31-12-2020 13.3 (16:20) 1.4 (00:00) 7.4 8.06 (23:00) 5 (23:10) 0.4 0 0 0 0.4
03-01-2021 12.2 (14:10) 1 (00:00) 6.6 4.72 (15:00) 3.06 (16:50) 0 0 0 0 0
04-01-2021 13 (16:20) 1.3 (00:00) 7.1 3.89 (15:40) 2.22 (15:30) 0 0 0 0 0
05-01-2021 12.5 (15:00) 4.6 (00:00) 8.5 6.67 (20:50) 3.61 (20:20) 0 0 0 0 0
06-01-2021 11.1 (14:30) 4.3 (00:00) 7.7 9.44 (23:59) 5.56 (23:40) 10.2 0 0 0 10.2
09-01-2021 12 (15:50) 6.6 (00:00) 9.3 11.39 (06:40) 7.78 (07:00) 0.6 0 0 0.6 0
21-01-2021 18 (14:30) 12.3 (00:00) 15.2 10.56 (23:59) 6.11 (23:59) 0.2 0.2 0 0 0
24-01-2021 16.1 (13:00) 12.5 (00:00) 14.3 10.83 (03:00) 6.39 (03:00) 0.8 0.4 0.4 0 0
25-01-2021 17.6 (15:30) 13 (00:00) 15.3 10.56 (13:50) 6.67 (13:40) 1 0.6 0.4 0 0
10-01-2021 9 (16:20) 4.1 (07:00) 6.5 6.67 (00:50) 3.61 (00:20) 2.2 0.8 1 0 0.4
22-01-2021 17.1 (15:20) 13.8 (00:00) 15.5 14.17 (03:00) 8.06 (05:30) 0.8 0.8 0 0 0
01-01-2021 13.7 (15:20) 9.8 (00:00) 11.8 11.94 (00:50) 6.67 (00:50) 1.2 1.2 0 0 0
07-01-2021 9.1 (14:20) 7.5 (00:00) 8.3 11.39 (01:30) 7.22 (01:40) 21 3 2.4 0.6 15
08-01-2021 10.8 (16:40) 7.2 (00:00) 9 11.39 (09:50) 6.94 (09:50) 55.2 3.8 15.4 36 0

Gráficas

Temp. máximas Temp. mínimas Temp. medias Precipitaciones Rachas de viento máximas Velocidades máximas media en intervalos de 10 minutos

Datos horarios

Fecha y hora oficial Temperatura (ºC) Velocidad del viento (km/h) Dirección del viento Racha (km/h) Dirección de racha Precipitación (mm) Presión (hPa) Tendencia (hPa) Humedad (%)
2021-01-26 23:00:00 15.6 6 Sudoeste 13 Sudoeste 0.2 -- -- 100
2021-01-26 22:00:00 15.5 5 Sudoeste 11 Sur 0 -- -- 100
2021-01-26 21:00:00 15.6 5 Sudoeste 9 Sudoeste 0 -- -- 100
2021-01-26 20:00:00 15.5 3 Sudoeste 10 Sudoeste 0 -- -- 100
2021-01-26 19:00:00 15.8 6 Sudoeste 10 Sudoeste 0 -- -- 100
2021-01-26 18:00:00 16.2 6 Oeste 17 Oeste 0 -- -- 100
2021-01-26 17:00:00 16.6 8 Oeste 16 Oeste 0 -- -- 100
2021-01-26 16:00:00 16.9 10 Oeste 16 Oeste 0 -- -- 99
2021-01-26 15:00:00 17.3 12 Oeste 20 Oeste 0 -- -- 99
2021-01-26 14:00:00 17.2 12 Sudoeste 21 Oeste 0 -- -- 100
2021-01-26 13:00:00 16.9 9 Sudoeste 16 Sudoeste 0 -- -- 100
2021-01-26 12:00:00 16.7 8 Sudoeste 18 Sudoeste 0 -- -- 100
2021-01-26 11:00:00 16.4 7 Sudoeste 17 Sudoeste 0 -- -- 100
2021-01-26 10:00:00 15.8 8 Sudoeste 17 Sudoeste 0 -- -- 100
2021-01-26 09:00:00 15.4 4 Sudoeste 8 Sur 0 -- -- 99
2021-01-26 08:00:00 15.4 4 Sudoeste 15 Sudoeste 0 -- -- 98
2021-01-26 07:00:00 15.3 10 Sudoeste 15 Sudoeste 0 -- -- 98
2021-01-26 06:00:00 15.1 9 Sudoeste 24 Oeste 0 -- -- 98
2021-01-26 05:00:00 15.2 13 Sudoeste 24 Sudoeste 0 -- -- 98
2021-01-26 04:00:00 15.3 13 Sudoeste 20 Sudoeste 0 -- -- 100
2021-01-26 03:00:00 14.8 6 Sudoeste 12 Sudoeste 0 -- -- 100
2021-01-26 02:00:00 13.6 5 Sur 8 Oeste 0 -- -- 99
2021-01-26 01:00:00 14.1 6 Oeste 10 Oeste 0 -- -- 98
2021-01-26 00:00:00 14.7 7 Oeste 14 Sudoeste 0 -- -- 98
2021-01-25 23:00:00 15.3 10 Oeste 22 Oeste 0 -- -- 98
2021-01-25 22:00:00 15.5 15 Oeste 22 Oeste 0 -- -- 97
2021-01-25 21:00:00 15.7 14 Oeste 24 Oeste 0 -- -- 96
2021-01-25 20:00:00 15.4 14 Oeste 24 Oeste 0 -- -- 96
2021-01-25 19:00:00 15.9 18 Oeste 27 Oeste 0 -- -- 94
2021-01-25 18:00:00 16.3 15 Sudoeste 28 Sudoeste 0 -- -- 92
2021-01-25 17:00:00 17.2 18 Sudoeste 29 Sudoeste 0 -- -- 90
2021-01-25 16:00:00 17.3 21 Sudoeste 30 Oeste 0 -- -- 90
2021-01-25 15:00:00 17.2 21 Sudoeste 36 Oeste 0 -- -- 96
2021-01-25 14:00:00 17.3 22 Sudoeste 38 Oeste 0 -- -- 94
2021-01-25 13:00:00 17.5 20 Sudoeste 36 Sudoeste 0 -- -- 93
2021-01-25 12:00:00 17 18 Sudoeste 31 Sudoeste 0 -- -- 95
2021-01-25 11:00:00 16.5 15 Sudoeste 28 Sudoeste 0 -- -- 96
2021-01-25 10:00:00 15.8 15 Sudoeste 27 Sudoeste 0 -- -- 99
2021-01-25 09:00:00 15.6 13 Sudoeste 23 Sudoeste 0.4 -- -- 99
2021-01-25 08:00:00 15.6 13 Sudoeste 23 Sudoeste 0 -- -- 98
2021-01-25 07:00:00 15.5 14 Sudoeste 26 Sudoeste 0 -- -- 98
2021-01-25 06:00:00 15.5 15 Sudoeste 24 Sudoeste 0 -- -- 98
2021-01-25 05:00:00 15.1 10 Oeste 18 Sudoeste 0.6 -- -- 98
2021-01-25 04:00:00 14.9 8 Sudoeste 19 Sudoeste 0 -- -- 96
2021-01-25 03:00:00 14.6 8 Sudoeste 13 Sudoeste 0 -- -- 98
2021-01-25 02:00:00 14.3 10 Sudoeste 16 Sudoeste 0 -- -- 100
2021-01-25 01:00:00 13.2 4 Sur 6 Sur 0 -- -- 99
2021-01-25 00:00:00 13 4 Sur 8 Sur 0 -- -- 99
2021-01-24 23:00:00 12.8 4 Sur 6 Sur 0 -- -- 98
2021-01-24 22:00:00 12.7 3 Sudeste 6 Sudeste 0 -- -- 97
2021-01-24 21:00:00 12.9 3 Sur 5 Sur 0 -- -- 95
2021-01-24 20:00:00 13.5 3 Sur 6 Sudoeste 0 -- -- 93
2021-01-24 19:00:00 14 4 Sudoeste 12 Sudoeste 0 -- -- 89
2021-01-24 18:00:00 14.9 7 Oeste 17 Oeste 0 -- -- 88
2021-01-24 17:00:00 15.1 12 Sudoeste 16 Oeste 0 -- -- 87
2021-01-24 16:00:00 15.8 11 Oeste 17 Oeste 0 -- -- 87
2021-01-24 15:00:00 15.3 10 Oeste 17 Oeste 0 -- -- 90
2021-01-24 14:00:00 15.6 10 Oeste 17 Oeste 0 -- -- 89
2021-01-24 13:00:00 16.1 11 Noroeste 18 Noroeste 0 -- -- 88
2021-01-24 12:00:00 15.7 12 Oeste 21 Oeste 0 -- -- 99
2021-01-24 11:00:00 15.3 15 Oeste 27 Oeste 0.2 -- -- 100
2021-01-24 10:00:00 15.2 16 Oeste 33 Oeste 0.2 -- -- 100
2021-01-24 09:00:00 15.4 16 Sudoeste 35 Sudoeste 0 -- -- 99
2021-01-24 08:00:00 15.7 20 Sudoeste 33 Oeste 0 -- -- 98
2021-01-24 07:00:00 15.9 21 Sudoeste 33 Oeste 0 -- -- 97
2021-01-24 06:00:00 15.7 20 Sudoeste 32 Sudoeste 0 -- -- 96
2021-01-24 05:00:00 15.7 22 Sudoeste 39 Sudoeste 0.2 -- -- 97
2021-01-24 04:00:00 15.7 20 Sudoeste 34 Sudoeste 0.2 -- -- 97
2021-01-24 03:00:00 15.8 23 Sudoeste 39 Sudoeste 0 -- -- 96
2021-01-24 02:00:00 15.8 18 Sudoeste 33 Sudoeste 0 -- -- 96
2021-01-24 01:00:00 15.8 18 Sudoeste 32 Sudoeste 0 -- -- 97
2021-01-24 00:00:00 15.8 18 Sudoeste 32 Sudoeste 0 -- -- 96
2021-01-23 23:00:00 15.6 20 Sudoeste 35 Sudoeste 0.2 -- -- 96
2021-01-23 22:00:00 15.3 16 Sudoeste 34 Sudoeste 0.6 -- -- 97
2021-01-23 21:00:00 15.5 19 Sudoeste 33 Sudoeste 0 -- -- 92
2021-01-23 20:00:00 14.8 14 Sudoeste 39 Sudoeste 0 -- -- 94
2021-01-23 19:00:00 15.3 20 Sudoeste 39 Sudoeste 0 -- -- 87
2021-01-23 18:00:00 15.6 18 Sudoeste 40 Sudoeste 0 -- -- 82
2021-01-23 17:00:00 15.8 16 Sudoeste 35 Sudoeste 0 -- -- 83
2021-01-23 16:00:00 16.4 18 Sudoeste 33 Sudoeste 0 -- -- 80
2021-01-23 15:00:00 16.6 20 Sudoeste 36 Sudoeste 0 -- -- 81
2021-01-23 14:00:00 17.2 19 Sudoeste 40 Sudoeste 0 -- -- 79
2021-01-23 13:00:00 17.1 18 Sudoeste 27 Sudoeste 0 -- -- 81
2021-01-23 12:00:00 15.9 14 Sudoeste 22 Sudoeste 0 -- -- 85
2021-01-23 11:00:00 15.3 6 Oeste 19 Oeste 0 -- -- 89
2021-01-23 10:00:00 14.3 11 Sudoeste 16 Sudoeste 0 -- -- 91
2021-01-23 09:00:00 12.6 5 Sudoeste 14 Sudoeste 0 -- -- 90
2021-01-23 08:00:00 13.1 9 Oeste 15 Oeste 0 -- -- 94
2021-01-23 07:00:00 13.5 11 Oeste 15 Oeste 0 -- -- 94
2021-01-23 06:00:00 13.3 8 Oeste 17 Oeste 0 -- -- 93
2021-01-23 05:00:00 13.2 12 Oeste 19 Oeste 0 -- -- 93
2021-01-23 04:00:00 13.5 13 Oeste 24 Oeste 0 -- -- 91
2021-01-23 03:00:00 13.5 14 Oeste 22 Sudoeste 0 -- -- 92
2021-01-23 02:00:00 13.4 10 Sudoeste 15 Sudoeste 0 -- -- 90
2021-01-23 01:00:00 14 11 Sudoeste 24 Sudoeste 0 -- -- 80
2021-01-23 00:00:00 14 12 Oeste 23 Oeste 0 -- -- 89
2021-01-22 23:00:00 13.9 17 Oeste 28 Oeste 0 -- -- 87
2021-01-22 22:00:00 13.9 15 Oeste 35 Oeste 0 -- -- 87
2021-01-22 21:00:00 14.5 22 Oeste 35 Sudoeste 0 -- -- 90
2021-01-22 20:00:00 14.8 18 Oeste 27 Sudoeste 0 -- -- 89
2021-01-22 19:00:00 14.8 18 Oeste 26 Sudoeste 0 -- -- 88
2021-01-22 18:00:00 15.7 15 Oeste 36 Oeste 0 -- -- 84
2021-01-22 17:00:00 16.3 22 Oeste 36 Oeste 0 -- -- 81
2021-01-22 16:00:00 17 24 Oeste 38 Oeste 0 -- -- 78
2021-01-22 15:00:00 17 25 Oeste 40 Oeste 0 -- -- 77
2021-01-22 14:00:00 16.9 22 Oeste 36 Oeste 0 -- -- 78
2021-01-22 13:00:00 16.9 22 Oeste 32 Sudoeste 0 -- -- 79
2021-01-22 12:00:00 16.5 21 Oeste 32 Oeste 0 -- -- 77
2021-01-22 11:00:00 16 23 Oeste 39 Oeste 0 -- -- 85
2021-01-22 10:00:00 15.3 22 Oeste 37 Oeste 0 -- -- 90
2021-01-22 09:00:00 15.2 25 Oeste 42 Oeste 0 -- -- 90
2021-01-22 08:00:00 15.3 21 Oeste 33 Oeste 0 -- -- 95
2021-01-22 07:00:00 15.6 21 Oeste 34 Oeste 0 -- -- 94
2021-01-22 06:00:00 15.9 24 Sudoeste 46 Oeste 0 -- -- 95
2021-01-22 05:00:00 16.4 19 Sudoeste 38 Sudoeste 0 -- -- 97
2021-01-22 04:00:00 16.2 21 Sudoeste 48 Sudoeste 0 -- -- 98
2021-01-22 03:00:00 16 28 Sudoeste 51 Sudoeste 0.8 -- -- 99
2021-01-22 02:00:00 16 25 Sudoeste 40 Sudoeste 0 -- -- 97
2021-01-22 01:00:00 15.9 26 Sur 40 Sur 0 -- -- 96
2021-01-22 00:00:00 16 22 Sur 38 Sur 0 -- -- 94
2021-01-21 23:00:00 15.8 14 Sur 29 Sudoeste 0 -- -- 94
2021-01-21 22:00:00 15.8 21 Sur 35 Sudoeste 0 -- -- 93
2021-01-21 21:00:00 15.5 15 Sudoeste 27 Sur 0 -- -- 94
2021-01-21 20:00:00 15.5 14 Sudoeste 30 Sudoeste 0 -- -- 92
2021-01-21 19:00:00 15.7 13 Sudoeste 26 Sudoeste 0 -- -- 90
2021-01-21 18:00:00 16 13 Sudoeste 30 Sur 0 -- -- 89
2021-01-21 17:00:00 16.5 15 Sudoeste 30 Sudoeste 0 -- -- 88
2021-01-21 16:00:00 17.3 16 Sudoeste 32 Sudoeste 0 -- -- 86
2021-01-21 15:00:00 17.8 16 Sudoeste 31 Sudoeste 0 -- -- 83
2021-01-21 14:00:00 17.8 16 Sudoeste 29 Sudoeste 0 -- -- 87
2021-01-21 13:00:00 17.5 17 Sudoeste 31 Sudoeste 0 -- -- 85
2021-01-21 12:00:00 17 17 Sudoeste 26 Sudoeste 0 -- -- 87
2021-01-21 11:00:00 16.1 13 Sudoeste 23 Sudoeste 0 -- -- 91
2021-01-21 10:00:00 15.1 11 Sudoeste 20 Sudoeste 0 -- -- 92
2021-01-21 09:00:00 13 5 Sur 12 Sudoeste 0 -- -- 95
2021-01-21 08:00:00 13.1 7 Sudoeste 12 Sudoeste 0 -- -- 94
2021-01-21 07:00:00 13.3 7 Sudoeste 20 Sudoeste 0 -- -- 91
2021-01-21 06:00:00 14.3 14 Sudoeste 23 Sudoeste 0.2 -- -- 93
2021-01-21 05:00:00 12.4 5 Sur 11 Sur 0 -- -- 95
2021-01-21 04:00:00 13.7 7 Sudoeste 18 Sudoeste 0 -- -- 90
2021-01-21 03:00:00 13.6 9 Sudoeste 15 Sudoeste 0 -- -- 92
2021-01-21 02:00:00 13.8 9 Sudoeste 18 Sudoeste 0 -- -- 91
2021-01-21 01:00:00 13.9 11 Oeste 22 Oeste 0 -- -- 92
2021-01-21 00:00:00 14.1 12 Sudoeste 27 Oeste 0 -- -- 91
2021-01-20 23:00:00 14.3 13 Sudoeste 28 Oeste 0 -- -- 89
2021-01-20 22:00:00 14.6 18 Sudoeste 32 Sudoeste 0 -- -- 85
2021-01-20 21:00:00 14.9 22 Sudoeste 35 Sudoeste 0 -- -- 85
2021-01-20 20:00:00 14.9 23 Sudoeste 40 Sudoeste 0 -- -- 81
2021-01-20 19:00:00 14.9 23 Sudoeste 45 Sudoeste 1 -- -- 86
2021-01-20 18:00:00 14.4 25 Oeste 45 Oeste 1.4 -- -- 87
2021-01-20 17:00:00 15.6 14 Sudoeste 28 Sur 0 -- -- 94
2021-01-20 16:00:00 15.3 15 Sur 29 Sur 0 -- -- 96
2021-01-20 15:00:00 14.5 15 Sudoeste 30 Sudoeste 1.6 -- -- 98
2021-01-20 14:00:00 13.9 8 Sudoeste 31 Sur 15.6 -- -- 99
2021-01-20 13:00:00 13.8 16 Sur 44 Sur 1.4 -- -- 96
2021-01-20 12:00:00 13.4 18 Sur 49 Sur 2.2 -- -- 93
2021-01-20 11:00:00 14.2 23 Sur 45 Sudoeste 7 -- -- 96
2021-01-20 10:00:00 14.5 19 Sur 33 Sur 0.4 -- -- 91
2021-01-20 09:00:00 14.1 20 Sur 44 Sur 1 -- -- 90
2021-01-20 08:00:00 14.6 20 Sur 45 Sur 0.2 -- -- 84
2021-01-20 07:00:00 14.9 22 Sudoeste 42 Sudoeste 0 -- -- 80
2021-01-20 06:00:00 14.9 18 Sur 34 Sur 0 -- -- 79
2021-01-20 05:00:00 14.8 19 Sur 33 Sur 0 -- -- 79
2021-01-20 04:00:00 14.6 15 Sur 32 Sur 0 -- -- 80
2021-01-20 03:00:00 14.3 13 Sur 23 Sur -- -- -- 80
2021-01-20 02:00:00 14.4 12 Sur 29 Sur 0 -- -- 72
2021-01-20 01:00:00 14 9 Sur 27 Sur 0 -- -- 75
2021-01-20 00:00:00 14.1 13 Sur 26 Sur 0 -- -- 69
2021-01-19 23:00:00 13.8 9 Sur 17 Sur 0 -- -- 73
2021-01-19 22:00:00 12.4 2 Sudeste 7 Sudeste 0 -- -- 87
2021-01-19 21:00:00 13 5 Sudeste 13 Sudeste 0 -- -- 86
2021-01-19 20:00:00 13.5 6 Sudeste 17 Sudeste 0 -- -- 90
2021-01-19 19:00:00 13.7 6 Sur 18 Sur 0 -- -- 87
2021-01-19 18:00:00 14.2 12 Sudeste 22 Sudeste 0 -- -- 83
2021-01-19 17:00:00 14.4 11 Sur 19 Sur 0 -- -- 82
2021-01-19 16:00:00 14.4 11 Sudeste 26 Sur 0 -- -- 80
2021-01-19 15:00:00 15 13 Sudeste 23 Sudeste 0 -- -- 79
2021-01-19 14:00:00 14.6 12 Sudeste 22 Sudeste 0 -- -- 82
2021-01-19 13:00:00 12.9 5 Este 10 Sudeste 0 -- -- 89
2021-01-19 12:00:00 12 6 Este 20 Este 0 -- -- 89
2021-01-19 11:00:00 10.6 8 Este 19 Este 0 -- -- 96
2021-01-19 10:00:00 8.5 12 Este 19 Este 0 -- -- 97
2021-01-19 09:00:00 7.2 11 Este 17 Este 0 -- -- 97
2021-01-19 08:00:00 7.6 10 Este 18 Este 0 -- -- 97
2021-01-19 07:00:00 8.2 10 Este 17 Este 0 -- -- 97
2021-01-19 06:00:00 8.3 9 Este 14 Este 0 -- -- 99
2021-01-19 05:00:00 8.1 5 Este 10 Este 0 -- -- 99
2021-01-19 04:00:00 8 4 Este 9 Este 0 -- -- 99
2021-01-19 03:00:00 7.7 5 Este 9 Este 0 -- -- 99
2021-01-19 02:00:00 8 7 Este 9 Este 0 -- -- 98
2021-01-19 01:00:00 8.2 6 Este 10 Este 0 -- -- 98
2021-01-19 00:00:00 8.4 6 Este 9 Este 0 -- -- 98
2021-01-18 23:00:00 8 4 Este 7 Este 0 -- -- 96
2021-01-18 22:00:00 8.2 4 Este 6 Este 0 -- -- 95
2021-01-18 21:00:00 8.7 3 Este 6 Este 0 -- -- 92
2021-01-18 20:00:00 10.3 2 Sudeste 3 Sudeste 0 -- -- 86
2021-01-18 19:00:00 13.3 2 Sur 6 Sur 0 -- -- 80
2021-01-18 18:00:00 16.1 4 Sur 13 Sur 0 -- -- 73
2021-01-18 17:00:00 16.8 6 Sur 12 Sudoeste 0 -- -- 71
2021-01-18 16:00:00 16.8 6 Sur 12 Sur 0 -- -- 71
2021-01-18 15:00:00 15.2 4 Noroeste 8 Noroeste 0 -- -- 65
2021-01-18 14:00:00 14.6 5 Norte 9 Nordeste 0 -- -- 63
2021-01-18 13:00:00 13.4 3 Norte 8 Norte 0 -- -- 75
2021-01-18 12:00:00 12.1 4 Nordeste 9 Norte 0 -- -- 80
2021-01-18 11:00:00 9.6 4 Este 10 Este 0 -- -- 93
2021-01-18 10:00:00 5.9 3 Nordeste 7 Nordeste 0 -- -- 100
2021-01-18 09:00:00 3.3 5 Este 7 Nordeste 0 -- -- 99
2021-01-18 08:00:00 3.3 4 Nordeste 7 Nordeste 0 -- -- 98
2021-01-18 07:00:00 3.7 5 Nordeste 8 Nordeste 0 -- -- 97
2021-01-18 06:00:00 4.7 4 Norte 8 Norte 0 -- -- 97
2021-01-18 05:00:00 4.3 4 Este 6 Este 0 -- -- 98
2021-01-18 04:00:00 4 3 Este 5 Sudeste 0 -- -- 96
2021-01-18 03:00:00 4.4 4 Este 6 Este 0 -- -- 96
2021-01-18 02:00:00 4.7 3 Este 6 Sudeste 0 -- -- 96
2021-01-18 01:00:00 4.6 4 Este 6 Este 0 -- -- 96
2021-01-18 00:00:00 4.5 0 Calma 5 Este 0 -- -- 94
2021-01-17 23:00:00 5.2 2 Este 4 Este 0 -- -- 93
2021-01-17 22:00:00 6.2 2 Este 4 Este 0 -- -- 93
2021-01-17 21:00:00 7 2 Noroeste 6 Noroeste 0 -- -- 90
2021-01-17 20:00:00 8.5 0 Calma 5 Oeste 0 -- -- 87
2021-01-17 19:00:00 11.1 0 Calma 4 Noroeste 0 -- -- 79
2021-01-17 18:00:00 14.5 2 Norte 9 Norte 0 -- -- 67
2021-01-17 17:00:00 14.2 5 Norte 11 Norte 0 -- -- 67
2021-01-17 16:00:00 14.1 5 Norte 15 Nordeste 0 -- -- 64
2021-01-17 15:00:00 13.3 9 Norte 20 Nordeste 0 -- -- 64
2021-01-17 14:00:00 12.2 9 Nordeste 18 Nordeste 0 -- -- 69
2021-01-17 13:00:00 10.9 6 Norte 15 Nordeste 0 -- -- 73
2021-01-17 12:00:00 9.2 9 Nordeste 16 Norte 0 -- -- 77
2021-01-17 11:00:00 7.5 8 Nordeste 14 Nordeste 0 -- -- 84
2021-01-17 10:00:00 5.3 8 Nordeste 13 Norte 0 -- -- 95
2021-01-17 09:00:00 3.9 4 Nordeste 10 Nordeste 0 -- -- 97
2021-01-17 08:00:00 3.3 5 Norte 11 Norte 0 -- -- 96
2021-01-17 07:00:00 3.3 4 Nordeste 8 Norte 0 -- -- 94
2021-01-17 06:00:00 3.3 3 Norte 6 Norte 0 -- -- 93
2021-01-17 05:00:00 3.7 3 Nordeste 7 Nordeste 0 -- -- 92
2021-01-17 04:00:00 4.4 4 Nordeste 7 Nordeste 0 -- -- 93
2021-01-17 03:00:00 5.1 5 Nordeste 8 Nordeste 0 -- -- 94
2021-01-17 02:00:00 5.4 3 Norte 8 Nordeste 0 -- -- 93
2021-01-17 01:00:00 6.2 5 Nordeste 7 Nordeste 0 -- -- 93
2021-01-17 00:00:00 7.1 0 Calma 9 Sudeste 0 -- -- 87
2021-01-16 23:00:00 9.1 8 Este 22 Este 0 -- -- 82
2021-01-16 22:00:00 7.7 2 Este 9 Nordeste 0 -- -- 78
2021-01-16 21:00:00 9.7 6 Nordeste 10 Sudeste 0 -- -- 72
2021-01-16 20:00:00 10.8 6 Este 13 Nordeste 0 -- -- 72
2021-01-16 19:00:00 12.6 10 Nordeste 17 Nordeste 0 -- -- 63
2021-01-16 18:00:00 15.1 6 Norte 22 Norte 0 -- -- 55
2021-01-16 17:00:00 15.4 12 Norte 26 Norte 0 -- -- 57
2021-01-16 16:00:00 15.2 9 Norte 19 Norte 0 -- -- 61
2021-01-16 15:00:00 14.5 9 Norte 23 Norte 0 -- -- 60
2021-01-16 14:00:00 12.9 9 Norte 22 Norte 0 -- -- 63
2021-01-16 13:00:00 11.1 8 Norte 22 Nordeste 0 -- -- 70
2021-01-16 12:00:00 9.7 8 Nordeste 21 Nordeste 0 -- -- 78
2021-01-16 11:00:00 7.2 6 Norte 15 Nordeste 0 -- -- 92
2021-01-16 10:00:00 5 4 Norte 12 Norte 0 -- -- 100
2021-01-16 09:00:00 3 3 Norte 10 Nordeste 0 -- -- 100
2021-01-16 08:00:00 3.1 3 Norte 11 Norte 0 -- -- 100
2021-01-16 07:00:00 3.5 2 Nordeste 12 Norte 0 -- -- 99
2021-01-16 06:00:00 3.3 3 Norte 8 Norte 0 -- -- 99
2021-01-16 05:00:00 3.5 5 Nordeste 9 Norte 0 -- -- 99
2021-01-16 04:00:00 2.5 4 Nordeste 5 Norte 0 -- -- 98
2021-01-16 03:00:00 2.9 0 Calma 4 Norte 0 -- -- 97
2021-01-16 02:00:00 3.9 3 Nordeste 4 Nordeste 0 -- -- 97
2021-01-16 01:00:00 4.1 3 Nordeste 5 Nordeste 0 -- -- 97
2021-01-16 00:00:00 4.6 0 Calma 6 Noroeste 0 -- -- 96
2021-01-15 23:00:00 4.5 4 Noroeste 7 Noroeste 0 -- -- 96
2021-01-15 22:00:00 5 3 Sudeste 4 Sudeste 0 -- -- 94
2021-01-15 21:00:00 5.7 0 Calma 2 Sudeste 0 -- -- 91
2021-01-15 20:00:00 7.2 0 Calma 3 Sudoeste 0 -- -- 90
2021-01-15 19:00:00 9.5 3 Noroeste 11 Oeste 0 -- -- 85
2021-01-15 18:00:00 11.3 9 Oeste 16 Oeste 0 -- -- 80
2021-01-15 17:00:00 11.7 9 Oeste 16 Oeste 0 -- -- 73
2021-01-15 16:00:00 12.3 10 Oeste 15 Oeste 0 -- -- 69
2021-01-15 15:00:00 12.5 5 Noroeste 10 Noroeste 0 -- -- 65
2021-01-15 14:00:00 12.1 2 Noroeste 10 Nordeste 0 -- -- 66
2021-01-15 13:00:00 10 6 Nordeste 12 Nordeste 0 -- -- 75
2021-01-15 12:00:00 8.3 4 Nordeste 13 Nordeste 0 -- -- 86
2021-01-15 11:00:00 5.7 6 Nordeste 10 Nordeste 0 -- -- 100
2021-01-15 10:00:00 3.7 0 Calma 5 Nordeste 0 -- -- 100
2021-01-15 09:00:00 1.9 3 Nordeste 6 Norte 0 -- -- 100
2021-01-15 08:00:00 2.6 0 Calma 5 Norte 0 -- -- 100
2021-01-15 07:00:00 2.6 2 Norte 6 Norte 0 -- -- 100
2021-01-15 06:00:00 2.1 0 Calma 5 Nordeste 0 -- -- 99
2021-01-15 05:00:00 2 3 Norte 5 Norte 0 -- -- 99
2021-01-15 04:00:00 1.6 2 Norte 4 Norte 0 -- -- 96
2021-01-15 03:00:00 2.1 3 Este 5 Nordeste 0 -- -- 96
2021-01-15 02:00:00 3.2 3 Nordeste 4 Nordeste 0 -- -- 95
2021-01-15 01:00:00 4.8 2 Nordeste 7 Norte 0 -- -- 95
2021-01-15 00:00:00 4.6 4 Norte 6 Nordeste 0 -- -- 95
2021-01-14 23:00:00 5.6 2 Nordeste 9 Noroeste 0 -- -- 90
2021-01-14 22:00:00 8.5 5 Noroeste 9 Noroeste 0 -- -- 88
2021-01-14 21:00:00 9.4 6 Oeste 17 Noroeste 0 -- -- 85
2021-01-14 20:00:00 9.6 9 Noroeste 16 Noroeste 0 -- -- 84
2021-01-14 19:00:00 8.8 4 Oeste 8 Oeste 0 -- -- 85
2021-01-14 18:00:00 10.4 4 Noroeste 17 Oeste 0 -- -- 79
2021-01-14 17:00:00 10.3 10 Oeste 14 Oeste 0 -- -- 79
2021-01-14 16:00:00 9.8 7 Oeste 17 Oeste 0 -- -- 84
2021-01-14 15:00:00 9.2 10 Oeste 17 Oeste 0 -- -- 88
2021-01-14 14:00:00 9 10 Oeste 19 Oeste 0 -- -- 87
2021-01-14 13:00:00 7.8 5 Noroeste 12 Noroeste 0 -- -- 90
2021-01-14 12:00:00 5.4 3 Noroeste 6 Norte 0 -- -- 100
2021-01-14 11:00:00 3.2 4 Norte 9 Norte 0 -- -- 100
2021-01-14 10:00:00 1.9 0 Calma 5 Nordeste 0 -- -- 100
2021-01-14 09:00:00 1.2 2 Nordeste 6 Nordeste 0 -- -- 99
2021-01-14 08:00:00 1.4 4 Nordeste 6 Nordeste 0 -- -- 99
2021-01-14 07:00:00 1 3 Este 5 Nordeste 0 -- -- 97
2021-01-14 06:00:00 1 0 Calma 3 Norte 0 -- -- 97
2021-01-14 05:00:00 1.9 2 Este 5 Nordeste 0 -- -- 97
2021-01-14 04:00:00 2.5 2 Nordeste 5 Noroeste 0 -- -- 97
2021-01-14 03:00:00 2.2 2 Oeste 4 Noroeste 0 -- -- 96
2021-01-14 02:00:00 3.2 2 Sudeste 4 Sur 0 -- -- 96
2021-01-14 01:00:00 3.5 3 Sur 4 Oeste 0 -- -- 95
2021-01-14 00:00:00 3.8 3 Sur -- -- 0 -- -- 94
2021-01-13 23:00:00 4.1 4 Sudeste 4 Sudeste 0 -- -- 93
2021-01-13 22:00:00 4.7 2 Sudoeste 5 Oeste 0 -- -- 92
2021-01-13 21:00:00 5 4 Oeste 7 Oeste 0 -- -- 88
2021-01-13 20:00:00 6.6 2 Sur 6 Oeste 0 -- -- 85
2021-01-13 19:00:00 9.1 4 Oeste 11 Oeste 0 -- -- 76
2021-01-13 18:00:00 11.3 9 Oeste 13 Oeste 0 -- -- 63
2021-01-13 17:00:00 12 8 Oeste 12 Oeste 0 -- -- 61
2021-01-13 16:00:00 12.6 6 Noroeste 12 Norte 0 -- -- 57
2021-01-13 15:00:00 11.7 7 Norte 15 Norte 0 -- -- 59
2021-01-13 14:00:00 10.9 8 Nordeste 23 Nordeste 0 -- -- 60
2021-01-13 13:00:00 9.8 14 Nordeste 28 Norte 0 -- -- 65
2021-01-13 12:00:00 7.7 7 Norte 18 Norte 0 -- -- 73
2021-01-13 11:00:00 5.7 7 Nordeste 16 Nordeste 0 -- -- 81
2021-01-13 10:00:00 3.8 6 Nordeste 12 Nordeste 0 -- -- 92
2021-01-13 09:00:00 2.5 4 Norte 8 Norte 0 -- -- 94
2021-01-13 08:00:00 2.9 3 Norte 13 Norte 0 -- -- 93
2021-01-13 07:00:00 3.2 5 Norte 12 Nordeste 0 -- -- 94
2021-01-13 06:00:00 3.4 4 Norte 10 Nordeste 0 -- -- 95
2021-01-13 05:00:00 3.4 2 Norte 10 Nordeste 0 -- -- 93
2021-01-13 04:00:00 3.8 4 Norte 10 Nordeste 0 -- -- 93
2021-01-13 03:00:00 4.4 5 Nordeste 14 Noroeste 0 -- -- 92
2021-01-13 02:00:00 4.7 5 Norte 11 Norte 0 -- -- 93
2021-01-13 01:00:00 5.1 4 Norte 10 Norte 0 -- -- 93
2021-01-13 00:00:00 5 3 Norte 8 Norte 0 -- -- 94
2021-01-12 23:00:00 4.3 3 Norte 7 Norte 0 -- -- 95
2021-01-12 22:00:00 4 0 Calma 4 Norte 0 -- -- 91
2021-01-12 21:00:00 5.2 3 Norte 4 Norte 0 -- -- 89
2021-01-12 20:00:00 6.6 0 Calma 5 Norte 0 -- -- 81
2021-01-12 19:00:00 9.3 2 Norte 5 Norte 0 -- -- 73
2021-01-12 18:00:00 11.8 3 Norte 13 Norte 0 -- -- 64
2021-01-12 17:00:00 12.2 6 Norte 16 Norte 0 -- -- 65
2021-01-12 16:00:00 12.3 5 Norte 15 Norte 0 -- -- 67
2021-01-12 15:00:00 11.4 9 Nordeste 18 Nordeste 0 -- -- 68
2021-01-12 14:00:00 10.8 10 Nordeste 17 Nordeste 0 -- -- 72
2021-01-12 13:00:00 9.6 8 Nordeste 18 Nordeste 0 -- -- 76
2021-01-12 12:00:00 7.8 9 Nordeste 18 Nordeste 0 -- -- 81
2021-01-12 11:00:00 5.5 9 Nordeste 18 Nordeste 0 -- -- 85
2021-01-12 10:00:00 3.4 13 Nordeste 22 Nordeste 0 -- -- 91
2021-01-12 09:00:00 2.6 10 Nordeste 22 Nordeste 0 -- -- 93
2021-01-12 08:00:00 2.9 8 Nordeste 13 Nordeste 0 -- -- 92
2021-01-12 07:00:00 3.6 4 Nordeste 10 Nordeste 0 -- -- 91
2021-01-12 06:00:00 4.4 4 Nordeste 12 Nordeste 0 -- -- 90
2021-01-12 05:00:00 4.2 6 Nordeste 12 Nordeste 0 -- -- 90
2021-01-12 04:00:00 4 7 Nordeste 11 Nordeste 0 -- -- 90
2021-01-12 03:00:00 2.9 4 Nordeste 6 Nordeste 0 -- -- 95
2021-01-12 02:00:00 3.6 5 Nordeste 7 Nordeste 0 -- -- 96
2021-01-12 01:00:00 4.4 4 Este 11 Norte 0 -- -- 96
2021-01-12 00:00:00 3.6 4 Este 5 Este 0 -- -- 95
2021-01-11 23:00:00 3.7 2 Este 3 Sudeste 0 -- -- 93
2021-01-11 22:00:00 4.3 0 Calma 3 Sudeste 0 -- -- 93
2021-01-11 21:00:00 5.1 3 Sudeste 3 Sudeste 0 -- -- 91
2021-01-11 20:00:00 6.6 2 Este -- -- 0 -- -- 86
2021-01-11 19:00:00 8.9 2 Nordeste 8 Norte 0 -- -- 77
2021-01-11 18:00:00 11.4 5 Nordeste 14 Norte 0 -- -- 67
2021-01-11 17:00:00 11.8 8 Nordeste 18 Nordeste 0 -- -- 65
2021-01-11 16:00:00 11.4 7 Nordeste 17 Nordeste 0 -- -- 64
2021-01-11 15:00:00 10.7 8 Norte 17 Nordeste 0 -- -- 68
2021-01-11 14:00:00 10.3 7 Norte 21 Nordeste 0 -- -- 69
2021-01-11 13:00:00 9.6 8 Norte 20 Nordeste 0 -- -- 72
2021-01-11 12:00:00 8.4 9 Norte 21 Nordeste 0 -- -- 76
2021-01-11 11:00:00 6.9 7 Nordeste 23 Nordeste 0 -- -- 86
2021-01-11 10:00:00 5.1 11 Nordeste 18 Nordeste 0 -- -- 94
2021-01-11 09:00:00 3.8 8 Nordeste 13 Nordeste 0 -- -- 96
2021-01-11 08:00:00 3.8 7 Nordeste 18 Norte 0 -- -- 96
2021-01-11 07:00:00 4 3 Norte 9 Nordeste 0 -- -- 97
2021-01-11 06:00:00 4.3 2 Norte 9 Norte 0 -- -- 97
2021-01-11 05:00:00 5 4 Norte 11 Nordeste 0 -- -- 97
2021-01-11 04:00:00 5 4 Norte 11 Norte 0 -- -- 97
2021-01-11 03:00:00 4.1 0 Calma 4 Norte 0 -- -- 94
2021-01-11 02:00:00 5.2 2 Norte 12 Nordeste 0 -- -- 92
2021-01-11 01:00:00 6.4 7 Nordeste 13 Norte 0 -- -- 90
2021-01-11 00:00:00 6.6 4 Norte 10 Noroeste 0 -- -- 93
2021-01-10 23:00:00 6.9 2 Nordeste 7 Nordeste 0.4 -- -- 90
2021-01-10 22:00:00 7.5 5 Norte 12 Norte 0 -- -- 83
2021-01-10 21:00:00 7.2 4 Norte 10 Noroeste 0 -- -- 84
2021-01-10 20:00:00 6.9 4 Noroeste 10 Norte 0 -- -- 81
2021-01-10 19:00:00 7.3 4 Noroeste 12 Nordeste 0 -- -- 80
2021-01-10 18:00:00 7.9 5 Norte 13 Nordeste 0 -- -- 79
2021-01-10 17:00:00 8.3 5 Norte 13 Norte 0 -- -- 77
2021-01-10 16:00:00 8.2 5 Norte 13 Nordeste 0 -- -- 78
2021-01-10 15:00:00 7.8 7 Norte 15 Norte 0 -- -- 81
2021-01-10 14:00:00 7.5 5 Norte 17 Nordeste 0 -- -- 80
2021-01-10 13:00:00 6.9 9 Nordeste 15 Nordeste 0 -- -- 81
2021-01-10 12:00:00 6 5 Este 11 Este 0 -- -- 87
2021-01-10 11:00:00 5.1 6 Nordeste 11 Nordeste 0 -- -- 93
2021-01-10 10:00:00 4.5 6 Nordeste 14 Nordeste 0 -- -- 95
2021-01-10 09:00:00 4.2 6 Nordeste 13 Nordeste 0 -- -- 94
2021-01-10 08:00:00 4.2 4 Nordeste 13 Norte 0 -- -- 94
2021-01-10 07:00:00 4.1 5 Nordeste 14 Norte 1 -- -- 94
2021-01-10 06:00:00 4.4 5 Nordeste 15 Norte 0.6 -- -- 92
2021-01-10 05:00:00 4.9 6 Nordeste 13 Nordeste 0 -- -- 91
2021-01-10 04:00:00 6.4 4 Oeste 15 Noroeste 0.2 -- -- 82
2021-01-10 03:00:00 6.5 9 Oeste 17 Oeste 0 -- -- 80
2021-01-10 02:00:00 6.5 6 Oeste 17 Oeste 0 -- -- 81
2021-01-10 01:00:00 6.4 10 Oeste 24 Oeste 0 -- -- 81
2021-01-10 00:00:00 6.6 12 Oeste 25 Oeste 0 -- -- 78
2021-01-09 23:00:00 7.3 13 Oeste 22 Oeste 0 -- -- 76
2021-01-09 22:00:00 7.5 8 Noroeste 26 Noroeste 0 -- -- 72
2021-01-09 21:00:00 7.1 5 Norte 20 Norte 0 -- -- 73
2021-01-09 20:00:00 8.7 10 Noroeste 27 Noroeste 0 -- -- 66
2021-01-09 19:00:00 9.6 12 Oeste 26 Oeste 0 -- -- 63
2021-01-09 18:00:00 9.6 18 Oeste 30 Oeste 0.4 -- -- 67
2021-01-09 17:00:00 9.7 14 Sudoeste 29 Sudoeste 0.2 -- -- 76
2021-01-09 16:00:00 11.4 14 Sudoeste 26 Oeste 0 -- -- 69
2021-01-09 15:00:00 10.8 17 Oeste 32 Oeste 0 -- -- 66
2021-01-09 14:00:00 11.4 16 Oeste 26 Oeste 0 -- -- 60
2021-01-09 13:00:00 10.7 15 Oeste 26 Sudoeste 0 -- -- 65
2021-01-09 12:00:00 10.9 17 Oeste 25 Oeste 0 -- -- 66
2021-01-09 11:00:00 10 11 Oeste 21 Oeste 0 -- -- 67
2021-01-09 10:00:00 9 13 Oeste 26 Oeste 0 -- -- 72
2021-01-09 09:00:00 8.3 15 Oeste 31 Oeste 0 -- -- 75
2021-01-09 08:00:00 8 21 Oeste 41 Oeste 0 -- -- 76
2021-01-09 07:00:00 7.8 28 Oeste 41 Oeste 0 -- -- 75
2021-01-09 06:00:00 7.8 23 Oeste 38 Oeste 0 -- -- 76
2021-01-09 05:00:00 8 22 Oeste 37 Oeste 0 -- -- 78
2021-01-09 04:00:00 8.4 21 Oeste 33 Noroeste 0 -- -- 80
2021-01-09 03:00:00 7.9 22 Oeste 37 Oeste 0 -- -- 86
2021-01-09 02:00:00 8.4 19 Oeste 30 Oeste 0 -- -- 89
2021-01-09 01:00:00 8.6 15 Oeste 24 Oeste 0 -- -- 92
2021-01-09 00:00:00 8.4 10 Oeste 23 Oeste 0 -- -- 93
2021-01-08 23:00:00 8.8 15 Noroeste 31 Oeste 0 -- -- 94
2021-01-08 22:00:00 9.4 19 Oeste 29 Oeste 0 -- -- 99
2021-01-08 21:00:00 9.2 12 Noroeste 28 Noroeste 0 -- -- 100
2021-01-08 20:00:00 9.1 11 Noroeste 22 Noroeste 0 -- -- 100
2021-01-08 19:00:00 9.3 9 Noroeste 19 Noroeste 0 -- -- 100
2021-01-08 18:00:00 9.4 5 Noroeste 16 Noroeste 0 -- -- 100
2021-01-08 17:00:00 10 8 Noroeste 16 Oeste 0.8 -- -- 100
2021-01-08 16:00:00 10.2 3 Norte 14 Norte 2.4 -- -- 100
2021-01-08 15:00:00 9.2 6 Norte 27 Nordeste 7.8 -- -- 100
2021-01-08 14:00:00 8.5 14 Norte 33 Norte 12.6 -- -- 100
2021-01-08 13:00:00 8.1 16 Nordeste 39 Nordeste 12.4 -- -- 100
2021-01-08 12:00:00 7.7 15 Nordeste 37 Nordeste 3.4 -- -- 100
2021-01-08 11:00:00 7.5 21 Nordeste 39 Nordeste 1.6 -- -- 100
2021-01-08 10:00:00 7.3 22 Nordeste 41 Nordeste 4.4 -- -- 100
2021-01-08 09:00:00 7.5 18 Nordeste 40 Nordeste 3.6 -- -- 100
2021-01-08 08:00:00 7.3 21 Nordeste 41 Nordeste 1.8 -- -- 100
2021-01-08 07:00:00 7.4 13 Norte 34 Nordeste 0.6 -- -- 100
2021-01-08 06:00:00 7.4 14 Nordeste 33 Nordeste 1 -- -- 100
2021-01-08 05:00:00 7.2 14 Nordeste 34 Nordeste 1.6 -- -- 100
2021-01-08 04:00:00 7.2 17 Nordeste 37 Nordeste 0 -- -- 100
2021-01-08 03:00:00 7.3 18 Nordeste 35 Norte 0.2 -- -- 100
2021-01-08 02:00:00 7.4 17 Nordeste 36 Nordeste 0 -- -- 100
2021-01-08 01:00:00 7.4 13 Nordeste 36 Nordeste 1 -- -- 100
2021-01-08 00:00:00 7.5 18 Nordeste 34 Nordeste 2.2 -- -- 100
2021-01-07 23:00:00 7.8 15 Nordeste 32 Norte 2.4 -- -- 100
2021-01-07 22:00:00 8 11 Norte 30 Nordeste 2.8 -- -- 100
2021-01-07 21:00:00 8 16 Nordeste 35 Nordeste 2.8 -- -- 100
2021-01-07 20:00:00 8 15 Nordeste 37 Nordeste 3.2 -- -- 100
2021-01-07 19:00:00 8.2 20 Nordeste 33 Nordeste 1.6 -- -- 100
2021-01-07 18:00:00 8.5 17 Nordeste 30 Nordeste 0.4 -- -- 100
2021-01-07 17:00:00 8.8 14 Nordeste 31 Nordeste 0.2 -- -- 99
2021-01-07 16:00:00 9 16 Nordeste 31 Nordeste 0 -- -- 99
2021-01-07 15:00:00 9 18 Nordeste 31 Nordeste 0 -- -- 99
2021-01-07 14:00:00 8.9 15 Nordeste 31 Nordeste 0 -- -- 99
2021-01-07 13:00:00 8.7 19 Nordeste 36 Nordeste 0 -- -- 100
2021-01-07 12:00:00 8.1 10 Nordeste 30 Nordeste 0.2 -- -- 100
2021-01-07 11:00:00 7.9 11 Norte 31 Nordeste 0.2 -- -- 100
2021-01-07 10:00:00 7.6 18 Nordeste 33 Nordeste 0.2 -- -- 100
2021-01-07 09:00:00 7.6 15 Nordeste 34 Norte 0.4 -- -- 100
2021-01-07 08:00:00 7.6 15 Nordeste 31 Norte 0.2 -- -- 99
2021-01-07 07:00:00 7.9 10 Norte 29 Norte 1.2 -- -- 98
2021-01-07 06:00:00 8.2 17 Nordeste 37 Nordeste 0 -- -- 97
2021-01-07 05:00:00 8.3 18 Nordeste 36 Nordeste 0 -- -- 98
2021-01-07 04:00:00 8.3 15 Nordeste 35 Nordeste 0 -- -- 98
2021-01-07 03:00:00 8.5 21 Nordeste 40 Nordeste 0.2 -- -- 98
2021-01-07 02:00:00 8.5 21 Nordeste 41 Nordeste 0.6 -- -- 99
2021-01-07 01:00:00 8.6 17 Nordeste 36 Nordeste 2.2 -- -- 99
2021-01-07 00:00:00 8.7 16 Nordeste 34 Nordeste 3 -- -- 99
2021-01-06 23:00:00 9.1 14 Nordeste 29 Nordeste 1.2 -- -- 99
2021-01-06 22:00:00 9.2 13 Nordeste 28 Nordeste 2.4 -- -- 98
2021-01-06 21:00:00 9.2 12 Nordeste 19 Nordeste 2 -- -- 96
2021-01-06 20:00:00 9.4 12 Nordeste 23 Nordeste 1.2 -- -- 93
2021-01-06 19:00:00 9.9 7 Nordeste 16 Norte 0.4 -- -- 89
2021-01-06 18:00:00 10.7 3 Norte 13 Norte 0 -- -- 85
2021-01-06 17:00:00 11.1 5 Nordeste 14 Nordeste 0 -- -- 79
2021-01-06 16:00:00 11.1 10 Nordeste 22 Nordeste 0 -- -- 76
2021-01-06 15:00:00 10.9 14 Nordeste 26 Nordeste 0 -- -- 74
2021-01-06 14:00:00 10.6 9 Nordeste 22 Nordeste 0 -- -- 76
2021-01-06 13:00:00 9.5 8 Nordeste 19 Nordeste 0 -- -- 81
2021-01-06 12:00:00 8.8 9 Nordeste 14 Nordeste 0 -- -- 80
2021-01-06 11:00:00 6.5 8 Nordeste 25 Nordeste 0 -- -- 84
2021-01-06 10:00:00 4.9 13 Nordeste 22 Nordeste 0 -- -- 85
2021-01-06 09:00:00 4.6 10 Nordeste 21 Norte 0 -- -- 86
2021-01-06 08:00:00 4.7 6 Nordeste 13 Nordeste 0 -- -- 89
2021-01-06 07:00:00 4.6 5 Nordeste 11 Norte 0 -- -- 87
2021-01-06 06:00:00 4.4 6 Nordeste 13 Norte 0 -- -- 86
2021-01-06 05:00:00 4.5 6 Nordeste 15 Norte 0 -- -- 85
2021-01-06 04:00:00 4.9 8 Nordeste 18 Nordeste 0 -- -- 85
2021-01-06 03:00:00 5.3 10 Nordeste 18 Nordeste 0 -- -- 87
2021-01-06 02:00:00 5.7 6 Nordeste 13 Norte 0 -- -- 88
2021-01-06 01:00:00 6.3 7 Nordeste 18 Norte 0 -- -- 86
2021-01-06 00:00:00 7.4 11 Nordeste 18 Nordeste 0 -- -- 81
2021-01-05 23:00:00 7.9 10 Nordeste 20 Nordeste 0 -- -- 82
2021-01-05 22:00:00 9.1 11 Nordeste 20 Nordeste 0 -- -- 78
2021-01-05 21:00:00 9.9 13 Nordeste 24 Nordeste 0 -- -- 77
2021-01-05 20:00:00 10.3 10 Nordeste 19 Nordeste 0 -- -- 80
2021-01-05 19:00:00 10.6 5 Norte 14 Norte 0 -- -- 82
2021-01-05 18:00:00 11.2 5 Norte 13 Nordeste 0 -- -- 79
2021-01-05 17:00:00 11.9 6 Nordeste 13 Nordeste 0 -- -- 76
2021-01-05 16:00:00 12.3 5 Nordeste 16 Nordeste 0 -- -- 76
2021-01-05 15:00:00 12.5 7 Nordeste 18 Nordeste 0 -- -- 76
2021-01-05 14:00:00 11.8 10 Nordeste 17 Norte 0 -- -- 78
2021-01-05 13:00:00 11.1 9 Nordeste 18 Nordeste 0 -- -- 80
2021-01-05 12:00:00 9.5 10 Nordeste 17 Nordeste 0 -- -- 82
2021-01-05 11:00:00 9.1 10 Nordeste 16 Nordeste 0 -- -- 83
2021-01-05 10:00:00 6.6 6 Nordeste 15 Nordeste 0 -- -- 97
2021-01-05 09:00:00 4.8 6 Nordeste 10 Nordeste 0 -- -- 98
2021-01-05 08:00:00 4.9 3 Nordeste 7 Nordeste 0 -- -- 96
2021-01-05 07:00:00 4.9 3 Este 6 Este 0 -- -- 97
2021-01-05 06:00:00 5.2 3 Este 6 Este 0 -- -- 97
2021-01-05 05:00:00 5.7 3 Nordeste 6 Nordeste 0 -- -- 96
2021-01-05 04:00:00 6.7 4 Nordeste 8 Norte 0 -- -- 96
2021-01-05 03:00:00 7.2 3 Este 6 Este 0 -- -- 96
2021-01-05 02:00:00 8.1 4 Este 7 Este 0 -- -- 95
2021-01-05 01:00:00 8.1 3 Sudeste 9 Este 0 -- -- 94
2021-01-05 00:00:00 8.6 3 Sudeste 9 Sudeste 0 -- -- 93
2021-01-04 23:00:00 8.7 3 Sudeste 6 Sudeste 0 -- -- 93
2021-01-04 22:00:00 8.5 2 Norte 9 Sudoeste 0 -- -- 92
2021-01-04 21:00:00 7 3 Este 7 Este 0 -- -- 90
2021-01-04 20:00:00 7.8 3 Sudeste 5 Sudeste 0 -- -- 86
2021-01-04 19:00:00 9.3 4 Sur 5 Sur 0 -- -- 80
2021-01-04 18:00:00 12.2 2 Sudoeste 10 Sudoeste 0 -- -- 71
2021-01-04 17:00:00 12.7 6 Sudoeste 12 Oeste 0 -- -- 68
2021-01-04 16:00:00 12.7 6 Oeste 14 Oeste 0 -- -- 68
2021-01-04 15:00:00 12.5 6 Oeste 13 Oeste 0 -- -- 69
2021-01-04 14:00:00 11.8 6 Noroeste 12 Oeste 0 -- -- 68
2021-01-04 13:00:00 11.7 6 Oeste 10 Sudoeste 0 -- -- 63
2021-01-04 12:00:00 11.2 2 Noroeste 6 Oeste 0 -- -- 66
2021-01-04 11:00:00 9.2 2 Nordeste 5 Este 0 -- -- 78
2021-01-04 10:00:00 4.6 0 Calma 4 Nordeste 0 -- -- 98
2021-01-04 09:00:00 1.3 2 Sudeste 5 Sudeste 0 -- -- 94
2021-01-04 08:00:00 1.7 4 Este 5 Este 0 -- -- 93
2021-01-04 07:00:00 2.2 4 Este 6 Norte 0 -- -- 92
2021-01-04 06:00:00 3.6 4 Nordeste 8 Nordeste 0 -- -- 92
2021-01-04 05:00:00 3.4 4 Nordeste 6 Nordeste 0 -- -- 92
2021-01-04 04:00:00 3.6 3 Este 8 Nordeste 0 -- -- 89
2021-01-04 03:00:00 2.8 4 Nordeste 7 Norte 0 -- -- 91
2021-01-04 02:00:00 2.9 3 Este 6 Este 0 -- -- 89
2021-01-04 01:00:00 3.6 4 Este 5 Este 0 -- -- 87
2021-01-04 00:00:00 4.7 3 Este 6 Noroeste 0 -- -- 83
2021-01-03 23:00:00 7.4 4 Nordeste 17 Oeste 0 -- -- 76
2021-01-03 22:00:00 10.2 8 Noroeste 17 Oeste 0 -- -- 68
2021-01-03 21:00:00 9.9 8 Oeste 17 Oeste 0 -- -- 66
2021-01-03 20:00:00 7.1 5 Sudoeste 10 Sudoeste 0 -- -- 80
2021-01-03 19:00:00 8.6 6 Sudoeste 12 Sudoeste 0 -- -- 75
2021-01-03 18:00:00 11.1 6 Sudoeste 14 Sudoeste 0 -- -- 70
2021-01-03 17:00:00 11.6 9 Oeste 15 Sudoeste 0 -- -- 70
2021-01-03 16:00:00 11.5 8 Oeste 14 Sudoeste 0 -- -- 68
2021-01-03 15:00:00 11.5 9 Oeste 17 Sudoeste 0 -- -- 63
2021-01-03 14:00:00 12.1 6 Oeste 10 Oeste 0 -- -- 50
2021-01-03 13:00:00 11.4 3 Nordeste 11 Nordeste 0 -- -- 55
2021-01-03 12:00:00 10 7 Nordeste 12 Este 0 -- -- 63
2021-01-03 11:00:00 8.3 5 Nordeste 10 Nordeste 0 -- -- 75
2021-01-03 10:00:00 4.1 3 Nordeste 7 Nordeste 0 -- -- 96
2021-01-03 09:00:00 1.1 3 Nordeste 6 Nordeste 0 -- -- 95
2021-01-03 08:00:00 1.7 5 Nordeste 8 Norte 0 -- -- 95
2021-01-03 07:00:00 1.7 3 Este 6 Nordeste 0 -- -- 93
2021-01-03 06:00:00 2.1 3 Nordeste 6 Nordeste 0 -- -- 93
2021-01-03 05:00:00 2.2 3 Nordeste 5 Este 0 -- -- 93
2021-01-03 04:00:00 2 2 Este 6 Nordeste 0 -- -- 92
2021-01-03 03:00:00 2.3 2 Este 7 Este 0 -- -- 90
2021-01-03 02:00:00 2.9 4 Este 5 Este 0 -- -- 88
2021-01-03 01:00:00 4.4 3 Este 7 Este 0 -- -- 83
2021-01-03 00:00:00 6.5 3 Nordeste 13 Norte 0 -- -- 76
2021-01-02 23:00:00 8.8 7 Norte 19 Norte 0 -- -- 70
2021-01-02 22:00:00 9.7 9 Norte 22 Noroeste 0 -- -- 69
2021-01-02 21:00:00 10.8 9 Noroeste 29 Noroeste 0 -- -- 68
2021-01-02 20:00:00 11.2 15 Noroeste 27 Noroeste 0 -- -- 63
2021-01-02 19:00:00 11.1 14 Noroeste 27 Oeste 0 -- -- 65
2021-01-02 18:00:00 11.7 13 Oeste 24 Oeste 0 -- -- 63
2021-01-02 17:00:00 12.2 16 Oeste 28 Oeste 0 -- -- 60
2021-01-02 16:00:00 11.8 13 Oeste 21 Oeste 0 -- -- 67
2021-01-02 15:00:00 11.1 10 Oeste 16 Oeste 0 -- -- 72
2021-01-02 14:00:00 11 9 Oeste 14 Oeste 0 -- -- 66